Time;durP1;ratioP1;P1;durP2;ratioP2;P2;SDS_P1;SDS_P2;PMS_P1;PMS_P2;Temp;Humidity;BMP_temperature;BMP_pressure;BME280_temperature;BME280_humidity;BME280_pressure;Samples;Min_cycle;Max_cycle;Signal;HPM_P1;HPM_P2
2023/12/31 00:01:02;;;;;;;0.85;0.75;;;21.60;45.30;;;;;;5113597;28;20145;-38
2023/12/31 00:03:28;;;;;;;0.88;0.65;;;21.60;45.30;;;;;;5122258;27;20059;-40
2023/12/31 00:05:54;;;;;;;0.60;0.50;;;21.60;45.30;;;;;;5114829;28;20028;-41
2023/12/31 00:08:20;;;;;;;0.65;0.57;;;21.50;45.30;;;;;;5107921;28;20058;-42
2023/12/31 00:10:47;;;;;;;0.88;0.60;;;21.50;45.40;;;;;;5115891;28;20024;-40
2023/12/31 00:13:13;;;;;;;1.10;0.65;;;21.60;45.20;;;;;;5108325;28;20548;-41
2023/12/31 00:15:39;;;;;;;0.80;0.60;;;21.60;45.30;;;;;;5110530;28;20035;-40
2023/12/31 00:18:05;;;;;;;2.53;0.90;;;21.60;45.40;;;;;;5116760;28;20032;-39
2023/12/31 00:20:31;;;;;;;0.90;0.85;;;21.50;45.40;;;;;;5108649;27;20518;-41
2023/12/31 00:22:57;;;;;;;1.15;0.70;;;21.50;45.60;;;;;;5128441;27;20058;-41
2023/12/31 00:25:23;;;;;;;0.63;0.55;;;21.50;45.70;;;;;;5110908;28;20575;-41
2023/12/31 00:27:50;;;;;;;0.70;0.70;;;21.50;45.50;;;;;;5111966;28;20039;-39
2023/12/31 00:30:16;;;;;;;0.70;0.60;;;21.50;45.50;;;;;;5110535;27;20032;-41
2023/12/31 00:32:42;;;;;;;1.10;0.65;;;21.50;45.40;;;;;;5123724;27;20016;-41
2023/12/31 00:35:09;;;;;;;1.13;0.65;;;21.50;45.50;;;;;;5106903;28;20114;-39
2023/12/31 00:37:35;;;;;;;0.82;0.50;;;21.50;45.60;;;;;;5126606;27;20034;-40
2023/12/31 00:40:01;;;;;;;0.85;0.52;;;21.50;45.60;;;;;;5110049;28;20042;-40
2023/12/31 00:42:27;;;;;;;0.63;0.60;;;21.50;45.50;;;;;;5099910;28;20024;-41
2023/12/31 00:44:54;;;;;;;0.57;0.57;;;21.50;45.40;;;;;;5119663;28;20043;-40
2023/12/31 00:47:20;;;;;;;0.65;0.50;;;21.50;45.50;;;;;;5117525;28;20396;-41
2023/12/31 00:49:46;;;;;;;0.80;0.68;;;21.50;45.40;;;;;;5115983;28;20113;-43
2023/12/31 00:52:12;;;;;;;1.23;0.60;;;21.50;45.40;;;;;;5111956;28;20035;-40
2023/12/31 00:54:38;;;;;;;0.98;0.70;;;21.50;45.60;;;;;;5110722;28;20028;-40
2023/12/31 00:57:05;;;;;;;0.98;0.63;;;21.50;45.60;;;;;;5110950;28;20035;-38
2023/12/31 00:59:31;;;;;;;0.95;0.70;;;21.50;45.60;;;;;;5115238;27;20074;-40
2023/12/31 01:01:57;;;;;;;0.55;0.55;;;21.50;45.50;;;;;;5110662;28;20031;-39
2023/12/31 01:04:23;;;;;;;0.60;0.50;;;21.50;45.50;;;;;;5107437;28;20032;-38
2023/12/31 01:06:50;;;;;;;0.98;0.73;;;21.50;45.60;;;;;;5108805;28;20065;-38
2023/12/31 01:09:16;;;;;;;0.70;0.65;;;21.50;45.50;;;;;;5110889;28;20036;-39
2023/12/31 01:11:42;;;;;;;0.70;0.65;;;21.50;45.40;;;;;;5115899;28;20036;-38
2023/12/31 01:14:09;;;;;;;0.65;0.60;;;21.50;45.50;;;;;;5114563;28;20552;-38
2023/12/31 01:16:35;;;;;;;1.10;0.70;;;21.50;45.40;;;;;;5117654;27;20028;-38
2023/12/31 01:19:01;;;;;;;2.00;0.73;;;21.50;45.50;;;;;;5115152;27;20114;-39
2023/12/31 01:21:27;;;;;;;0.45;0.45;;;21.50;45.60;;;;;;5109121;28;20028;-40
2023/12/31 01:23:53;;;;;;;1.02;0.70;;;21.50;45.50;;;;;;5113609;27;20063;-40
2023/12/31 01:26:19;;;;;;;1.05;0.77;;;21.50;45.40;;;;;;5110132;28;20030;-41
2023/12/31 01:28:45;;;;;;;1.00;0.90;;;21.50;45.50;;;;;;5120652;28;20028;-40
2023/12/31 01:31:19;;;;;;;4.38;0.60;;;21.50;45.60;;;;;;5109862;28;20032;-39
2023/12/31 01:33:45;;;;;;;1.30;0.70;;;21.50;45.50;;;;;;5109851;28;20031;-39
2023/12/31 01:36:17;;;;;;;0.95;0.75;;;21.40;45.30;;;;;;5109813;28;20019;-38
2023/12/31 01:38:43;;;;;;;1.10;0.80;;;21.40;45.40;;;;;;5106934;28;20035;-40
2023/12/31 01:41:10;;;;;;;0.90;0.77;;;21.50;45.40;;;;;;5111587;28;20039;-39
2023/12/31 01:43:37;;;;;;;0.95;0.82;;;21.50;45.50;;;;;;5118000;28;20056;-39
2023/12/31 01:46:06;;;;;;;1.00;0.80;;;21.50;45.60;;;;;;5104561;28;20062;-39
2023/12/31 01:48:33;;;;;;;1.33;0.90;;;21.40;45.60;;;;;;5097278;28;20096;-39
2023/12/31 01:50:59;;;;;;;0.82;0.73;;;21.40;45.60;;;;;;5121191;28;20126;-40
2023/12/31 01:53:26;;;;;;;1.25;0.85;;;21.40;45.60;;;;;;5119562;28;20047;-39
2023/12/31 01:55:52;;;;;;;1.23;0.73;;;21.40;45.50;;;;;;5120817;28;20051;-42
2023/12/31 01:58:18;;;;;;;1.42;0.88;;;21.40;45.50;;;;;;5112765;28;20035;-39
2023/12/31 02:00:44;;;;;;;1.17;0.90;;;21.40;45.70;;;;;;5111761;27;20034;-39
2023/12/31 02:03:10;;;;;;;1.20;0.80;;;21.40;45.80;;;;;;5117978;28;20093;-39
2023/12/31 02:05:36;;;;;;;2.17;0.90;;;21.40;45.80;;;;;;5121000;28;20481;-38
2023/12/31 02:08:03;;;;;;;1.33;0.68;;;21.40;45.70;;;;;;5114148;28;20038;-39
2023/12/31 02:10:29;;;;;;;0.70;0.63;;;21.40;45.60;;;;;;5111783;28;20484;-39
2023/12/31 02:12:55;;;;;;;1.17;0.90;;;21.40;45.60;;;;;;5103765;28;20032;-39
2023/12/31 02:15:34;;;;;;;0.90;0.80;;;21.40;45.60;;;;;;5105284;28;20212;-40
2023/12/31 02:18:01;;;;;;;0.70;0.68;;;21.40;45.60;;;;;;5112650;28;20273;-39
2023/12/31 02:20:30;;;;;;;1.08;0.80;;;21.40;45.70;;;;;;5092515;28;20035;-38
2023/12/31 02:22:59;;;;;;;0.90;0.80;;;21.40;45.70;;;;;;5116222;28;20039;-40
2023/12/31 02:25:28;;;;;;;0.60;0.60;;;21.40;45.50;;;;;;5116281;28;20046;-38
2023/12/31 02:27:54;;;;;;;0.80;0.77;;;21.40;45.60;;;;;;5112730;28;20031;-38
2023/12/31 02:30:21;;;;;;;1.00;0.90;;;21.40;45.70;;;;;;5118660;28;20449;-40
2023/12/31 02:32:48;;;;;;;2.65;0.90;;;21.40;46.00;;;;;;5118752;28;20073;-39
2023/12/31 02:35:14;;;;;;;1.50;0.80;;;21.30;46.10;;;;;;5121524;28;20023;-37
2023/12/31 02:37:40;;;;;;;0.80;0.70;;;21.30;46.00;;;;;;5115018;28;20106;-41
2023/12/31 02:40:07;;;;;;;1.33;0.90;;;21.30;45.80;;;;;;5114767;27;20480;-40
2023/12/31 02:42:33;;;;;;;1.08;0.88;;;21.40;45.70;;;;;;5108073;28;20034;-40
2023/12/31 02:44:59;;;;;;;1.23;0.88;;;21.40;45.80;;;;;;5113206;28;20522;-40
2023/12/31 02:47:25;;;;;;;1.88;0.90;;;21.40;45.80;;;;;;5116489;28;20105;-39
2023/12/31 02:49:51;;;;;;;0.93;0.80;;;21.30;45.70;;;;;;5117460;28;20059;-40
2023/12/31 02:52:18;;;;;;;1.60;1.00;;;21.30;45.60;;;;;;5111626;27;20028;-39
2023/12/31 02:54:45;;;;;;;1.48;1.00;;;21.40;45.70;;;;;;5109991;27;20020;-40
2023/12/31 02:57:12;;;;;;;1.20;1.00;;;21.40;45.70;;;;;;5117737;27;20059;-39
2023/12/31 02:59:38;;;;;;;1.27;0.93;;;21.40;45.80;;;;;;5115058;28;20027;-41
2023/12/31 03:02:04;;;;;;;2.95;1.08;;;21.30;46.00;;;;;;5113359;28;20032;-39
2023/12/31 03:04:31;;;;;;;0.90;0.80;;;21.30;46.00;;;;;;5112058;27;20035;-39
2023/12/31 03:06:57;;;;;;;0.80;0.80;;;21.30;46.00;;;;;;5110798;27;20028;-40
2023/12/31 03:09:23;;;;;;;1.23;1.13;;;21.30;45.80;;;;;;5108480;28;20035;-41
2023/12/31 03:11:51;;;;;;;1.42;0.90;;;21.40;45.80;;;;;;5126425;27;20037;-41
2023/12/31 03:14:17;;;;;;;1.60;1.40;;;21.40;45.70;;;;;;5122118;28;20126;-40
2023/12/31 03:16:47;;;;;;;1.30;1.00;;;21.30;45.70;;;;;;5109304;28;20046;-41
2023/12/31 03:19:14;;;;;;;1.98;1.20;;;21.30;45.70;;;;;;5121756;27;20230;-40
2023/12/31 03:21:40;;;;;;;1.42;1.08;;;21.30;45.70;;;;;;5109447;27;20518;-40
2023/12/31 03:24:07;;;;;;;1.42;1.10;;;21.30;45.60;;;;;;5115476;28;20048;-39
2023/12/31 03:26:33;;;;;;;1.25;1.00;;;21.30;45.60;;;;;;5113306;27;20107;-38
2023/12/31 03:28:59;;;;;;;1.30;1.20;;;21.30;45.60;;;;;;5112291;28;20036;-39
2023/12/31 03:31:25;;;;;;;1.17;1.08;;;21.30;45.60;;;;;;5123542;28;20027;-39
2023/12/31 03:33:51;;;;;;;1.48;1.08;;;21.30;45.60;;;;;;5112521;27;20472;-39
2023/12/31 03:36:18;;;;;;;1.30;1.10;;;21.30;45.50;;;;;;5120293;27;20036;-40
2023/12/31 03:38:44;;;;;;;1.20;1.10;;;21.30;45.40;;;;;;5098068;28;20046;-38
2023/12/31 03:41:11;;;;;;;1.40;1.30;;;21.30;45.50;;;;;;5118368;27;20551;-40
2023/12/31 03:43:37;;;;;;;1.70;1.10;;;21.30;46.20;;;;;;5103278;27;20039;-41
2023/12/31 03:46:03;;;;;;;1.90;1.20;;;21.30;45.60;;;;;;5111520;27;20024;-40
2023/12/31 03:48:29;;;;;;;1.25;1.10;;;21.30;45.70;;;;;;5112762;27;20019;-40
2023/12/31 03:50:56;;;;;;;1.92;1.10;;;21.30;45.60;;;;;;5114389;27;20051;-40
2023/12/31 03:53:22;;;;;;;1.15;1.02;;;21.30;45.50;;;;;;5116507;27;20039;-39
2023/12/31 03:55:48;;;;;;;1.38;1.27;;;21.30;46.10;;;;;;5106730;28;20032;-38
2023/12/31 03:58:14;;;;;;;1.10;1.00;;;21.30;45.50;;;;;;5113966;27;20023;-39
2023/12/31 04:00:41;;;;;;;1.10;1.00;;;21.30;45.50;;;;;;5122462;27;20036;-39
2023/12/31 04:03:07;;;;;;;2.92;1.30;;;21.20;45.50;;;;;;5113460;27;20020;-36
2023/12/31 04:05:33;;;;;;;1.20;0.93;;;21.30;45.50;;;;;;5122034;27;20032;-40
2023/12/31 04:07:59;;;;;;;1.48;1.20;;;21.30;45.40;;;;;;5119106;28;20027;-41
2023/12/31 04:10:25;;;;;;;1.40;1.20;;;21.30;45.50;;;;;;5111206;27;20051;-41
2023/12/31 04:12:52;;;;;;;2.38;1.13;;;21.30;45.50;;;;;;5117079;28;20192;-41
2023/12/31 04:15:18;;;;;;;1.20;1.00;;;21.30;45.50;;;;;;5110982;28;20039;-41
2023/12/31 04:17:44;;;;;;;3.05;1.00;;;21.20;45.50;;;;;;5122683;28;20019;-40
2023/12/31 04:20:11;;;;;;;1.70;1.00;;;21.20;45.40;;;;;;5122165;28;20036;-41
2023/12/31 04:22:37;;;;;;;1.35;1.08;;;21.30;45.40;;;;;;5115119;28;20031;-41
2023/12/31 04:25:22;;;;;;;2.63;1.30;;;21.30;45.30;;;;;;5113177;28;20075;-38
2023/12/31 04:27:48;;;;;;;1.20;1.10;;;21.30;45.30;;;;;;5113349;28;20024;-41
2023/12/31 04:30:14;;;;;;;1.38;1.20;;;21.20;45.30;;;;;;5110086;27;20020;-41
2023/12/31 04:32:40;;;;;;;1.55;1.17;;;21.20;45.50;;;;;;5107766;28;20748;-40
2023/12/31 04:35:06;;;;;;;1.17;1.02;;;21.20;45.50;;;;;;5109319;28;20048;-38
2023/12/31 04:37:33;;;;;;;1.40;1.30;;;21.20;45.40;;;;;;5111458;27;20039;-40
2023/12/31 04:39:59;;;;;;;1.40;1.30;;;21.30;45.40;;;;;;5112047;28;20388;-38
2023/12/31 04:42:25;;;;;;;1.17;1.08;;;21.30;45.30;;;;;;5115079;28;20031;-40
2023/12/31 04:44:51;;;;;;;1.50;1.30;;;21.20;45.30;;;;;;5122956;27;20027;-40
2023/12/31 04:47:19;;;;;;;1.33;1.13;;;21.20;45.40;;;;;;5122288;27;20023;-39
2023/12/31 04:49:44;;;;;;;;;;;21.20;45.40;;;;;;5118549;28;20048;-38
2023/12/31 04:52:11;;;;;;;1.42;1.30;;;21.20;45.30;;;;;;5119752;27;20268;-41
2023/12/31 04:54:38;;;;;;;1.30;1.20;;;21.20;45.30;;;;;;5116236;27;20020;-40
2023/12/31 04:57:05;;;;;;;1.55;1.33;;;21.20;45.40;;;;;;5121572;27;20031;-40
2023/12/31 04:59:31;;;;;;;1.10;1.00;;;21.20;45.30;;;;;;5110969;28;20028;-39
2023/12/31 05:01:57;;;;;;;1.40;1.30;;;21.20;45.40;;;;;;5115905;28;20365;-39
2023/12/31 05:04:24;;;;;;;1.33;1.00;;;21.20;45.30;;;;;;5115814;28;20174;-40
2023/12/31 05:06:50;;;;;;;1.20;1.10;;;21.20;45.30;;;;;;5095319;28;20065;-39
2023/12/31 05:09:18;;;;;;;1.60;1.23;;;21.20;45.40;;;;;;5111813;27;20031;-40
2023/12/31 05:11:45;;;;;;;1.30;1.20;;;21.20;45.30;;;;;;5114026;28;20031;-41
2023/12/31 05:14:11;;;;;;;2.35;0.80;;;21.20;45.40;;;;;;5108495;28;20037;-45
2023/12/31 05:16:37;;;;;;;1.25;1.15;;;21.20;45.40;;;;;;5110027;28;20062;-42
2023/12/31 05:19:03;;;;;;;1.60;1.30;;;21.20;45.20;;;;;;5108740;28;20050;-41
2023/12/31 05:21:30;;;;;;;1.83;1.10;;;21.20;45.30;;;;;;5108232;28;20027;-41
2023/12/31 05:23:56;;;;;;;3.28;1.05;;;21.20;45.30;;;;;;5110012;28;20032;-42
2023/12/31 05:26:22;;;;;;;1.63;1.30;;;21.20;45.40;;;;;;5106599;28;20055;-40
2023/12/31 05:28:48;;;;;;;1.20;1.10;;;21.20;45.40;;;;;;5094907;28;20039;-39
2023/12/31 05:31:14;;;;;;;1.23;1.10;;;21.20;45.30;;;;;;5125006;27;20078;-41
2023/12/31 05:33:41;;;;;;;1.00;0.90;;;21.20;45.30;;;;;;5119934;28;20096;-43
2023/12/31 05:36:07;;;;;;;1.27;1.17;;;21.20;45.20;;;;;;5105517;28;20035;-41
2023/12/31 05:38:34;;;;;;;1.58;1.17;;;21.20;45.30;;;;;;5104683;28;20032;-41
2023/12/31 05:41:00;;;;;;;2.13;1.00;;;21.20;45.30;;;;;;5111707;27;20028;-40
2023/12/31 05:43:26;;;;;;;1.38;1.08;;;21.20;45.30;;;;;;5109717;28;20044;-41
2023/12/31 05:45:52;;;;;;;1.20;1.10;;;21.20;45.30;;;;;;5110344;28;20744;-41
2023/12/31 05:48:18;;;;;;;1.27;1.05;;;21.20;45.20;;;;;;5108488;28;20033;-43
2023/12/31 05:50:46;;;;;;;1.70;1.20;;;21.20;45.20;;;;;;5109360;28;20081;-42
2023/12/31 05:53:13;;;;;;;1.10;1.00;;;21.20;45.30;;;;;;5110401;28;20028;-42
2023/12/31 05:55:40;;;;;;;1.30;1.20;;;21.20;45.30;;;;;;5108798;28;21920;-41
2023/12/31 05:58:06;;;;;;;1.13;1.00;;;21.10;45.20;;;;;;5106826;28;20036;-37
2023/12/31 06:00:32;;;;;;;2.72;1.17;;;21.10;45.20;;;;;;5106953;28;20024;-42
2023/12/31 06:02:58;;;;;;;1.30;1.20;;;21.20;45.20;;;;;;5115216;28;20036;-41
2023/12/31 06:05:24;;;;;;;1.35;1.02;;;21.20;45.20;;;;;;5108698;28;20035;-43
2023/12/31 06:07:51;;;;;;;1.10;1.00;;;21.20;45.20;;;;;;5113900;28;20043;-43
2023/12/31 06:10:17;;;;;;;4.05;1.10;;;21.20;45.30;;;;;;5109036;28;20035;-41
2023/12/31 06:12:43;;;;;;;1.50;0.95;;;21.10;45.20;;;;;;5110893;28;20028;-41
2023/12/31 06:15:11;;;;;;;1.15;1.05;;;21.10;45.30;;;;;;5113667;28;20407;-41
2023/12/31 06:17:37;;;;;;;0.88;0.88;;;21.20;45.20;;;;;;5118082;28;20016;-40
2023/12/31 06:20:06;;;;;;;0.70;0.70;;;21.20;45.20;;;;;;5113288;28;20031;-40
2023/12/31 06:22:33;;;;;;;2.45;1.08;;;21.20;45.30;;;;;;5091360;28;20067;-41
2023/12/31 06:24:59;;;;;;;1.05;0.98;;;21.10;45.20;;;;;;5094504;28;20058;-40
2023/12/31 06:27:25;;;;;;;1.60;1.25;;;21.10;45.20;;;;;;5112222;28;20091;-41
2023/12/31 06:29:52;;;;;;;1.20;1.10;;;21.10;45.10;;;;;;5116003;28;20392;-40
2023/12/31 06:32:19;;;;;;;0.90;0.80;;;21.20;45.10;;;;;;5117833;28;20448;-40
2023/12/31 06:34:45;;;;;;;3.30;1.10;;;21.20;45.20;;;;;;5106396;28;20027;-40
2023/12/31 06:37:11;;;;;;;1.10;1.00;;;21.20;45.20;;;;;;5120208;28;20035;-41
2023/12/31 06:39:37;;;;;;;1.23;1.13;;;21.10;45.20;;;;;;5127590;28;20032;-40
2023/12/31 06:42:04;;;;;;;1.23;1.13;;;21.10;45.10;;;;;;5108036;28;20028;-40
2023/12/31 06:44:30;;;;;;;1.45;1.00;;;21.10;45.20;;;;;;5119645;28;20687;-42
2023/12/31 06:46:56;;;;;;;1.77;0.88;;;21.10;45.10;;;;;;5120849;28;20023;-40
2023/12/31 06:49:23;;;;;;;1.30;1.20;;;21.20;45.10;;;;;;5119388;28;20039;-41
2023/12/31 06:51:49;;;;;;;1.33;1.08;;;21.20;45.20;;;;;;5116626;28;20024;-44
2023/12/31 06:54:15;;;;;;;0.98;0.93;;;21.10;45.10;;;;;;5103752;28;20055;-40
2023/12/31 06:56:41;;;;;;;1.10;1.00;;;21.10;45.10;;;;;;5116546;28;20028;-38
2023/12/31 06:59:07;;;;;;;1.30;1.00;;;21.10;45.10;;;;;;5107502;28;20058;-40
2023/12/31 07:01:34;;;;;;;1.10;1.00;;;21.10;45.00;;;;;;5112256;28;20135;-39
2023/12/31 07:04:00;;;;;;;1.15;1.02;;;21.10;45.00;;;;;;5112896;28;20068;-39
2023/12/31 07:06:26;;;;;;;1.65;1.05;;;21.10;45.70;;;;;;5109550;28;20023;-40
2023/12/31 07:08:53;;;;;;;1.10;0.98;;;21.10;45.10;;;;;;5108928;28;20066;-40
2023/12/31 07:11:19;;;;;;;1.13;0.88;;;21.10;45.00;;;;;;5117713;28;20031;-39
2023/12/31 07:13:45;;;;;;;1.20;1.10;;;21.10;45.00;;;;;;5109580;28;20059;-41
2023/12/31 07:16:13;;;;;;;1.20;1.08;;;21.10;45.00;;;;;;5114142;28;20027;-41
2023/12/31 07:18:40;;;;;;;0.80;0.80;;;21.10;45.00;;;;;;5107025;28;20016;-42
2023/12/31 07:21:06;;;;;;;1.00;0.90;;;21.10;45.10;;;;;;5111598;28;20015;-41
2023/12/31 07:23:33;;;;;;;1.17;1.00;;;21.10;45.00;;;;;;5111106;28;20051;-42
2023/12/31 07:25:59;;;;;;;;;;;21.10;45.00;;;;;;5114253;28;20087;-41
2023/12/31 07:28:25;;;;;;;1.25;1.15;;;21.10;45.00;;;;;;5117614;28;19911;-42
2023/12/31 07:30:51;;;;;;;1.00;0.88;;;21.10;45.00;;;;;;5112301;28;20024;-41
2023/12/31 07:33:18;;;;;;;1.55;0.95;;;21.10;45.00;;;;;;5117208;27;20037;-41
2023/12/31 07:35:44;;;;;;;1.00;0.90;;;21.10;45.10;;;;;;5124118;27;20047;-39
2023/12/31 07:38:11;;;;;;;1.30;0.90;;;21.00;45.00;;;;;;5114808;28;20035;-41
2023/12/31 07:40:37;;;;;;;1.05;0.90;;;21.00;45.00;;;;;;5121573;28;20035;-42
2023/12/31 07:43:03;;;;;;;1.00;0.90;;;21.10;44.90;;;;;;5119400;28;20055;-40
2023/12/31 07:45:29;;;;;;;1.75;1.20;;;21.10;44.90;;;;;;5097481;28;20031;-40
2023/12/31 07:47:56;;;;;;;1.10;0.90;;;21.10;45.00;;;;;;5114458;28;20446;-42
2023/12/31 07:50:22;;;;;;;0.90;0.80;;;21.10;45.10;;;;;;5113360;28;20107;-43
2023/12/31 07:52:48;;;;;;;1.10;0.93;;;21.00;44.90;;;;;;5095083;28;20024;-42
2023/12/31 07:55:14;;;;;;;1.00;0.90;;;21.00;44.90;;;;;;5117437;27;20080;-42
2023/12/31 07:57:41;;;;;;;1.00;0.90;;;21.10;44.90;;;;;;5115663;28;20031;-41
2023/12/31 08:00:08;;;;;;;0.87;0.87;;;21.10;44.90;;;;;;5121525;28;20035;-41
2023/12/31 08:02:34;;;;;;;;;;;21.10;45.00;;;;;;5116627;28;20036;-41
2023/12/31 08:05:00;;;;;;;1.08;0.98;;;21.00;45.00;;;;;;5120702;27;19927;-42
2023/12/31 08:07:26;;;;;;;1.10;0.90;;;21.00;44.80;;;;;;5113848;28;20091;-41
2023/12/31 08:09:52;;;;;;;0.80;0.80;;;21.00;44.90;;;;;;5114870;27;20112;-41
2023/12/31 08:12:18;;;;;;;1.00;0.90;;;21.00;44.90;;;;;;5114592;27;20028;-40
2023/12/31 08:14:44;;;;;;;1.25;1.15;;;21.10;44.90;;;;;;5111274;28;20031;-40
2023/12/31 08:17:11;;;;;;;1.00;0.80;;;21.10;45.00;;;;;;5116502;28;20077;-40
2023/12/31 08:19:37;;;;;;;0.85;0.85;;;21.00;45.00;;;;;;5120615;28;20039;-42
2023/12/31 08:22:03;;;;;;;0.70;0.67;;;21.00;45.30;;;;;;5111371;28;20028;-40
2023/12/31 08:24:29;;;;;;;0.95;0.88;;;21.00;44.80;;;;;;5113219;28;20035;-41
2023/12/31 08:26:55;;;;;;;1.10;1.00;;;21.00;44.80;;;;;;5112466;27;20039;-42
2023/12/31 08:29:22;;;;;;;1.38;0.90;;;21.10;44.90;;;;;;5109392;28;20028;-42
2023/12/31 08:31:52;;;;;;;1.25;0.98;;;21.10;45.10;;;;;;5105678;28;20028;-42
2023/12/31 08:34:19;;;;;;;1.13;1.00;;;21.00;45.00;;;;;;5110469;28;20032;-42
2023/12/31 08:36:45;;;;;;;0.90;0.90;;;21.00;44.80;;;;;;5108604;28;20028;-42
2023/12/31 08:39:11;;;;;;;1.02;0.90;;;21.00;44.90;;;;;;5111846;28;20032;-41
2023/12/31 08:41:37;;;;;;;0.77;0.70;;;21.00;44.80;;;;;;5117191;28;20040;-41
2023/12/31 08:44:04;;;;;;;1.27;0.95;;;21.10;44.90;;;;;;5106737;28;20092;-41
2023/12/31 08:46:30;;;;;;;0.93;0.90;;;21.00;45.00;;;;;;5114518;28;20036;-42
2023/12/31 08:48:56;;;;;;;1.10;0.90;;;21.00;45.00;;;;;;5111173;28;20044;-42
2023/12/31 08:51:22;;;;;;;1.00;0.90;;;21.00;44.80;;;;;;5112640;28;20050;-41
2023/12/31 08:53:50;;;;;;;0.70;0.70;;;21.00;44.90;;;;;;5111407;28;20046;-42
2023/12/31 08:56:15;;;;;;;;;;;21.00;44.80;;;;;;5118970;27;20047;-42
2023/12/31 08:58:42;;;;;;;0.70;0.70;;;21.00;44.80;;;;;;5120505;27;19915;-44
2023/12/31 09:01:08;;;;;;;1.10;0.85;;;21.00;44.90;;;;;;5108445;27;20031;-40
2023/12/31 09:03:34;;;;;;;0.80;0.80;;;21.00;45.00;;;;;;5117902;28;20040;-42
2023/12/31 09:06:00;;;;;;;1.05;0.95;;;21.00;44.90;;;;;;5116257;28;20036;-41
2023/12/31 09:08:26;;;;;;;0.70;0.63;;;21.00;44.90;;;;;;5119866;27;20669;-42
2023/12/31 09:10:54;;;;;;;0.95;0.82;;;21.00;44.80;;;;;;5112960;28;20118;-41
2023/12/31 09:13:22;;;;;;;;;;;21.00;44.80;;;;;;5113973;28;20028;-41
2023/12/31 09:15:49;;;;;;;0.80;0.80;;;21.00;44.90;;;;;;5114597;28;19979;-43
2023/12/31 09:18:17;;;;;;;1.15;0.93;;;21.00;44.80;;;;;;5114444;27;20039;-41
2023/12/31 09:20:43;;;;;;;1.23;0.90;;;21.00;44.80;;;;;;5113967;28;20154;-43
2023/12/31 09:23:10;;;;;;;1.40;1.13;;;21.00;44.70;;;;;;5120182;28;20638;-41
2023/12/31 09:25:36;;;;;;;1.00;0.80;;;21.00;44.80;;;;;;5107379;28;20027;-41
2023/12/31 09:28:02;;;;;;;0.98;0.88;;;21.00;44.80;;;;;;5115570;28;20027;-39
2023/12/31 09:30:28;;;;;;;1.20;0.90;;;21.00;44.80;;;;;;5111223;28;20039;-41
2023/12/31 09:32:54;;;;;;;1.05;0.98;;;21.00;44.80;;;;;;5129112;27;20036;-40
2023/12/31 09:35:20;;;;;;;0.90;0.80;;;21.00;44.80;;;;;;5109732;28;20043;-41
2023/12/31 09:37:46;;;;;;;0.98;0.80;;;21.00;44.70;;;;;;5097068;28;20035;-41
2023/12/31 09:40:13;;;;;;;1.00;0.90;;;21.00;44.70;;;;;;5116279;28;20035;-41
2023/12/31 09:42:49;;;;;;;1.10;1.00;;;21.00;44.80;;;;;;5115489;28;20035;-42
2023/12/31 09:45:21;;;;;;;1.05;0.93;;;21.00;45.10;;;;;;5118523;28;20051;-41
2023/12/31 09:47:48;;;;;;;0.85;0.85;;;21.00;44.90;;;;;;5134833;27;20023;-41
2023/12/31 09:50:18;;;;;;;0.80;0.70;;;21.00;44.90;;;;;;5118212;28;20035;-41
2023/12/31 09:52:48;;;;;;;2.28;0.90;;;21.00;44.80;;;;;;5109466;28;20030;-41
2023/12/31 09:55:20;;;;;;;1.48;1.00;;;21.00;44.80;;;;;;5116782;28;20099;-40
2023/12/31 09:57:47;;;;;;;0.90;0.90;;;21.00;45.00;;;;;;5119002;28;20031;-41
2023/12/31 10:00:14;;;;;;;1.58;0.90;;;21.00;44.90;;;;;;5115776;28;20070;-40
2023/12/31 10:02:41;;;;;;;0.93;0.82;;;21.00;44.80;;;;;;5115279;28;20048;-41
2023/12/31 10:05:07;;;;;;;1.00;0.90;;;21.00;44.70;;;;;;5109946;28;20044;-39
2023/12/31 10:07:34;;;;;;;1.03;0.93;;;21.00;44.70;;;;;;5109800;28;20028;-41
2023/12/31 10:10:00;;;;;;;0.97;0.87;;;21.00;44.80;;;;;;5100378;28;20032;-41
2023/12/31 10:12:27;;;;;;;1.42;0.88;;;21.00;44.80;;;;;;5094364;28;20051;-41
2023/12/31 10:14:54;;;;;;;1.70;0.82;;;21.00;44.80;;;;;;5112612;28;20087;-41
2023/12/31 10:17:20;;;;;;;0.93;0.90;;;21.00;44.70;;;;;;5109650;28;20410;-43
2023/12/31 10:19:47;;;;;;;1.80;0.90;;;21.00;44.70;;;;;;5109249;28;20096;-41
2023/12/31 10:22:15;;;;;;;1.98;0.93;;;21.00;44.70;;;;;;5112087;28;20028;-40
2023/12/31 10:24:41;;;;;;;1.70;0.75;;;21.00;44.70;;;;;;5104648;28;20107;-41
2023/12/31 10:27:11;;;;;;;1.42;0.80;;;21.00;44.80;;;;;;5105428;28;20032;-37
2023/12/31 10:29:37;;;;;;;1.45;0.90;;;21.00;44.70;;;;;;5110871;28;20050;-41
2023/12/31 10:32:06;;;;;;;1.90;0.90;;;21.00;44.70;;;;;;5091755;28;20047;-40
2023/12/31 10:34:32;;;;;;;1.00;0.80;;;21.00;44.60;;;;;;5095794;28;20378;-40
2023/12/31 10:37:05;;;;;;;1.13;0.90;;;21.00;44.60;;;;;;5100166;28;20785;-41
2023/12/31 10:39:35;;;;;;;1.13;0.90;;;21.00;44.70;;;;;;5119870;28;20031;-41
2023/12/31 10:42:05;;;;;;;1.67;0.85;;;21.00;44.70;;;;;;5118723;28;21454;-41
2023/12/31 10:44:35;;;;;;;0.95;0.85;;;21.00;44.60;;;;;;5105236;28;20039;-42
2023/12/31 10:47:09;;;;;;;0.95;0.70;;;21.00;44.60;;;;;;5110627;28;20693;-41
2023/12/31 10:49:37;;;;;;;1.05;0.93;;;21.00;44.60;;;;;;5115091;28;20043;-41
2023/12/31 10:52:04;;;;;;;1.90;0.98;;;21.00;44.60;;;;;;5087670;28;20064;-40
2023/12/31 10:54:33;;;;;;;1.02;0.80;;;21.00;44.70;;;;;;5120928;27;20114;-41
2023/12/31 10:57:00;;;;;;;1.10;0.95;;;21.00;44.70;;;;;;5118935;28;20050;-41
2023/12/31 10:59:26;;;;;;;1.00;0.90;;;21.00;44.60;;;;;;5111928;28;20149;-40
2023/12/31 11:01:54;;;;;;;1.05;0.90;;;21.00;44.70;;;;;;5117786;28;20069;-40
2023/12/31 11:04:20;;;;;;;1.00;0.80;;;21.00;44.60;;;;;;5109773;28;20029;-41
2023/12/31 11:06:47;;;;;;;0.93;0.80;;;21.00;44.60;;;;;;5117118;28;20534;-41
2023/12/31 11:09:13;;;;;;;0.80;0.80;;;21.00;44.70;;;;;;5096226;28;20043;-41
2023/12/31 11:11:39;;;;;;;1.52;1.02;;;21.00;44.60;;;;;;5137514;27;20089;-41
2023/12/31 11:14:06;;;;;;;1.05;0.93;;;20.90;44.60;;;;;;5098977;28;20028;-41
2023/12/31 11:17:01;;;;;;;1.15;1.05;;;21.00;44.60;;;;;;5112406;28;20770;-43
2023/12/31 11:20:05;;;;;;;0.95;0.85;;;21.00;44.60;;;;;;5114910;28;20040;-41
2023/12/31 11:22:55;;;;;;;1.15;1.00;;;21.00;44.60;;;;;;5112646;28;20031;-42
2023/12/31 11:25:22;;;;;;;1.33;0.80;;;21.00;44.70;;;;;;5118690;28;20712;-38
2023/12/31 11:27:53;;;;;;;0.82;0.77;;;20.90;44.60;;;;;;5111117;28;20028;-41
2023/12/31 11:30:47;;;;;;;0.95;0.90;;;20.90;44.70;;;;;;5108157;28;20040;-42
2023/12/31 11:33:16;;;;;;;1.25;0.80;;;21.00;44.60;;;;;;5114263;27;20057;-42
2023/12/31 11:35:43;;;;;;;1.10;1.00;;;21.00;44.60;;;;;;5119338;27;20028;-42
2023/12/31 11:38:09;;;;;;;0.70;0.70;;;21.00;44.70;;;;;;5109976;28;20043;-41
2023/12/31 11:40:36;;;;;;;1.00;0.82;;;21.00;44.50;;;;;;5111452;28;20750;-41
2023/12/31 11:43:15;;;;;;;0.77;0.77;;;20.90;44.50;;;;;;5114723;28;20091;-40
2023/12/31 11:45:46;;;;;;;0.90;0.90;;;21.00;44.60;;;;;;5093302;28;20042;-40
2023/12/31 11:48:24;;;;;;;0.85;0.85;;;21.00;44.60;;;;;;5113377;27;20034;-42
2023/12/31 11:51:01;;;;;;;1.23;1.00;;;21.00;44.70;;;;;;5117073;28;20074;-42
2023/12/31 11:53:30;;;;;;;0.95;0.85;;;21.00;44.70;;;;;;5118857;28;20087;-42
2023/12/31 11:55:59;;;;;;;0.93;0.80;;;21.00;44.60;;;;;;5120921;28;20031;-41
2023/12/31 11:58:28;;;;;;;1.08;1.00;;;21.00;44.60;;;;;;5118104;28;20027;-44
2023/12/31 12:00:54;;;;;;;1.23;0.90;;;21.00;44.50;;;;;;5121952;28;20028;-40
2023/12/31 12:03:21;;;;;;;1.38;1.10;;;21.00;44.50;;;;;;5120064;28;20045;-42
2023/12/31 12:05:47;;;;;;;1.02;0.93;;;21.00;44.60;;;;;;5093785;28;20052;-42
2023/12/31 12:08:13;;;;;;;1.05;0.95;;;21.00;44.60;;;;;;5113672;28;20027;-42
2023/12/31 12:10:42;;;;;;;1.20;1.10;;;21.00;44.50;;;;;;5090977;28;20036;-41
2023/12/31 12:13:10;;;;;;;1.05;0.88;;;20.90;44.40;;;;;;5109127;28;20032;-40
2023/12/31 12:15:37;;;;;;;1.08;1.00;;;21.00;44.40;;;;;;5122800;28;20055;-40
2023/12/31 12:18:21;;;;;;;1.20;0.93;;;21.00;44.40;;;;;;5115688;28;20092;-39
2023/12/31 12:20:47;;;;;;;1.98;1.00;;;21.00;44.50;;;;;;5118662;28;20028;-40
2023/12/31 12:23:19;;;;;;;1.00;0.90;;;21.00;44.60;;;;;;5112195;28;20061;-41
2023/12/31 12:25:46;;;;;;;1.00;0.90;;;21.00;44.30;;;;;;5116175;28;20035;-42
2023/12/31 12:28:14;;;;;;;1.35;1.10;;;21.00;44.50;;;;;;5117215;28;20051;-41
2023/12/31 12:30:41;;;;;;;;;;;21.00;44.40;;;;;;5111913;27;20028;-41
2023/12/31 12:33:08;;;;;;;1.00;0.90;;;21.00;44.50;;;;;;5114389;28;19911;-42
2023/12/31 12:35:40;;;;;;;1.02;0.93;;;21.00;44.60;;;;;;5109718;28;20099;-41
2023/12/31 12:38:06;;;;;;;1.10;0.90;;;21.00;44.70;;;;;;5115669;28;20062;-42
2023/12/31 12:40:33;;;;;;;1.05;0.95;;;21.00;44.60;;;;;;5110117;28;20043;-42
2023/12/31 12:43:02;;;;;;;1.23;1.00;;;21.00;44.40;;;;;;5108953;28;20049;-42
2023/12/31 12:45:31;;;;;;;1.02;0.93;;;21.00;44.40;;;;;;5119884;28;20046;-42
2023/12/31 12:48:01;;;;;;;1.05;0.95;;;21.00;44.50;;;;;;5121392;28;20020;-44